Latest Coastal Weather Observations for Nullarbor

IDS60701

Issued at 8:31 pm CST Monday 31 August 2015 (issued every 10 minutes, with the page automatically refreshed every 10 minutes)

About coastal observations | Map of coastal stations | Coastal observations for SA | Marine services | Other Formats
Station Details ID: 018106 Name: NULLARBOR Lat: -31.45 Lon: 130.90 Height: 64.0 m
Data from the previous 72 hours. | See also: Recent months at Nullarbor
Date/Time
CST
Temp

°C
Wind Pressure Rain
since 9am
mm
Weather Cloud Vis
km
Sea
Height
m
Swell
Dir
 
Speed
knots
Gust
knots
hPa Trend Height
m
Period
s
Dir
31/08:30pm 13.2 S 7 8 1014.1 - 0.0 - Partly cloudy 10 - - - -
31/08:00pm 13.2 S 6 8 1014.4 - 0.0 - Partly cloudy 10 - - - -
31/07:30pm 13.5 SSE 7 9 1014.0 - 0.0 - Partly cloudy 10 - - - -
31/07:00pm 13.7 SSE 9 11 1014.0 - 0.0 - - 10 - - - -
31/06:30pm 14.2 S 11 13 1014.5 - 0.0 - Partly cloudy 10 - - - -
31/06:00pm 14.9 SSW 11 13 1014.6 - 0.0 - Mostly clear 10 - - - -
31/05:30pm 15.7 SSW 12 14 1014.5 - 0.0 - Partly cloudy 10 - - - -
31/05:00pm 15.5 SSW 11 15 1014.7 - 0.0 - Cloudy 10 - - - -
31/04:30pm 16.2 SSW 12 15 1014.9 - 0.0 - Partly cloudy 10 - - - -
31/04:00pm 16.9 S 10 14 1015.0 - 0.0 - Partly cloudy 10 - - - -
31/03:30pm 17.3 S 11 14 1015.4 - 0.0 - Partly cloudy 10 - - - -
31/03:00pm 18.0 S 10 13 1015.5 - 0.0 - Cloudy 10 - - - -
31/02:30pm 19.1 SSW 7 12 1015.9 - 0.0 - Partly cloudy 10 - - - -
31/02:00pm 18.3 SSW 8 12 1016.2 - 0.0 - Partly cloudy 10 - - - -
31/01:30pm 18.2 SSW 7 12 1016.7 - 0.0 - Partly cloudy 10 - - - -
31/01:00pm 18.0 S 6 11 1017.3 - 0.0 - Partly cloudy 10 - - - -
31/12:30pm 18.4 S 7 10 1017.5 - 0.0 - Partly cloudy 10 - - - -
31/12:00pm 18.2 S 8 12 1017.7 - 0.0 - Cloudy 10 - - - -
31/11:30am 18.1 SSW 8 12 1018.3 - 0.0 - Partly cloudy 10 - - - -
31/11:00am 18.0 SW 7 11 1018.4 - 0.0 - Partly cloudy 10 - - - -
31/10:30am 17.2 SW 7 11 1018.5 - 0.0 - Partly cloudy 10 - - - -
31/10:06am 16.8 SW 8 10 1018.7 - 0.0 - Partly cloudy 10 - - - -
31/10:00am 16.5 SW 8 12 1018.8 - 0.0 - Partly cloudy 10 - - - -
31/09:30am 15.7 SW 10 12 1018.8 - 0.0 - Cloudy 10 - - - -
31/09:00am 14.9 SW 7 11 1018.6 - 4.0 - Cloudy 10 - - - -
31/08:30am 14.2 WSW 8 10 1018.5 - 4.0 - Cloudy 10 - - - -
31/08:00am 14.0 SW 7 10 1018.3 - 4.0 - Cloudy 10 - - - -
31/07:30am 13.6 WSW 7 10 1018.1 - 4.0 - Cloudy 10 - - - -
31/07:06am 13.1 WSW 6 7 1017.8 - 4.0 - Cloudy 9 - - - -
31/07:00am 13.2 WSW 7 9 1017.8 - 4.0 - Cloudy 9 - - - -
31/06:30am 12.6 WSW 5 7 1017.7 - 4.0 - Cloudy 6 - - - -
31/06:15am 12.5 W 5 7 1017.7 - 4.0 - Cloudy 7 - - - -
31/06:00am 12.3 W 5 6 1017.5 - 4.0 - Cloudy 10 - - - -
31/05:39am 11.5 WNW 6 9 1017.6 - 4.0 - Partly cloudy 10 - - - -
31/05:30am 11.3 WNW 6 7 1017.5 - 4.0 - Partly cloudy 10 - - - -
31/05:00am 11.7 WNW 4 5 1017.3 - 4.0 - - 10 - - - -
31/04:30am 12.3 WNW 5 6 1017.2 - 3.8 - - 10 - - - -
31/04:00am 12.8 W 7 8 1017.2 - 3.8 - - 10 - - - -
31/03:30am 13.2 W 7 10 1017.4 - 3.8 - - 10 - - - -
31/03:00am 13.3 W 9 11 1017.8 - 3.8 - - 10 - - - -
31/02:30am 12.9 SW 9 13 1017.4 - 3.8 - - 10 - - - -
31/02:00am 13.2 NW 6 7 1017.0 - 3.8 - - 10 - - - -
31/01:30am 13.7 NNW 7 8 1017.0 - 3.8 - - 10 - - - -
31/01:00am 14.1 N 6 7 1017.0 - 3.8 - - 10 - - - -
31/12:30am 14.7 N 7 10 1017.2 - 3.8 - - 10 - - - -
31/12:00am 15.1 N 10 12 1016.8 - 3.8 - Mostly cloudy 10 - - - -
 
Date/Time
CST
Temp

°C
Wind Pressure Rain
since 9am
mm
Weather Cloud Vis
km
Sea
Height
m
Swell
Dir
 
Speed
knots
Gust
knots
hPa Trend Height
m
Period
s
Dir
30/11:30pm 15.4 N 13 16 1017.2 - 3.8 - - 10 - - - -
30/11:00pm 15.5 N 14 18 1017.5 - 3.8 - - 10 - - - -
30/10:30pm 15.7 NNE 17 21 1016.4 - 3.8 - Partly cloudy 10 - - - -
30/10:00pm 15.5 N 14 18 1017.8 - 3.8 - Partly cloudy 10 - - - -
30/09:30pm 15.5 N 15 19 1017.8 - 3.8 - Partly cloudy 10 - - - -
30/09:00pm 15.2 NNE 15 22 1017.9 - 3.8 - Cloudy 10 - - - -
30/08:30pm 14.8 NNE 10 13 1018.5 - 3.8 - Partly cloudy 10 - - - -
30/08:00pm 14.8 N 8 9 1018.9 - 3.8 - Partly cloudy 10 - - - -
30/07:30pm 14.9 NE 7 9 1018.2 - 3.8 - - 10 - - - -
30/07:00pm 15.0 ENE 8 10 1017.7 - 3.8 - - 10 - - - -
30/06:30pm 15.2 E 8 10 1017.6 - 3.8 - - 10 - - - -
30/06:00pm 15.5 ESE 10 11 1017.8 - 3.8 Recent precip. Cloudy 10 - - - -
30/05:30pm 15.7 SSW 7 9 1018.6 - 3.6 - Partly cloudy 10 - - - -
30/05:24pm 15.7 SSW 7 9 1018.7 - 3.4 - Partly cloudy 10 - - - -
30/05:12pm 15.8 SW 7 9 1018.7 - 3.4 - Partly cloudy 7 - - - -
30/05:07pm 15.9 WSW 7 9 1018.7 - 3.2 - Partly cloudy 9 - - - -
30/05:00pm 15.9 WSW 9 13 1018.7 - 2.8 - Partly cloudy 9 - - - -
30/04:49pm 15.9 WSW 10 13 1018.6 - 2.4 - Partly cloudy 7 - - - -
30/04:30pm 16.1 WSW 13 18 1018.3 - 1.6 - Partly cloudy 10 - - - -
30/04:18pm 16.3 SW 17 21 1017.8 - 1.4 - Partly cloudy 10 - - - -
30/04:00pm 16.6 WSW 22 31 1017.1 - 1.2 - Partly cloudy 5 - - - -
30/03:56pm 17.6 WNW 18 31 1017.2 - 0.6 - Partly cloudy 7 - - - -
30/03:52pm 19.6 NW 13 29 1017.1 - 0.4 - Partly cloudy 9 - - - -
30/03:30pm 24.9 N 8 11 1015.8 - 0.0 - Partly cloudy 10 - - - -
30/03:00pm 25.5 N 5 9 1015.6 - 0.0 - Mostly cloudy 10 - - - -
30/02:30pm 26.2 NNW 7 11 1015.7 - 0.0 - Partly cloudy 10 - - - -
30/02:00pm 26.1 N 8 13 1016.0 - 0.0 - - 10 - - - -
30/01:30pm 25.0 N 12 17 1016.6 - 0.0 - - 10 - - - -
30/01:00pm 24.5 N 14 18 1017.4 - 0.0 - - 10 - - - -
30/12:30pm 23.9 NNE 15 20 1017.8 - 0.0 - - 10 - - - -
30/12:00pm 23.1 NNE 18 24 1018.4 - 0.0 - - 10 - - - -
30/11:30am 20.8 NNE 19 25 1018.9 - 0.0 - - 10 - - - -
30/11:00am 19.8 NNE 20 25 1019.0 - 0.0 - - 10 - - - -
30/10:30am 18.5 NNE 21 27 1019.5 - 0.0 - - 10 - - - -
30/10:00am 16.5 NNE 23 29 1019.8 - 0.0 - Partly cloudy 10 - - - -
30/09:30am 15.0 NE 20 27 1020.0 - 0.0 - Partly cloudy 10 - - - -
30/09:00am 14.7 NE 20 27 1019.9 - 0.0 - Mostly cloudy 10 - - - -
30/08:56am 14.8 NE 19 29 1020.0 - 0.0 - - 10 - - - -
30/08:30am 13.2 NE 19 25 1020.0 - 0.0 - - 10 - - - -
30/08:00am 11.4 NE 15 20 1020.1 - 0.0 - - 10 - - - -
30/07:30am 9.8 NE 14 18 1019.8 - 0.0 - - 10 - - - -
30/07:00am 9.7 NE 15 17 1019.4 - 0.0 - - 10 - - - -
30/06:30am 10.1 NE 15 19 1019.3 - 0.0 - - 10 - - - -
30/06:00am 10.4 ENE 14 18 1019.1 - 0.0 - Mostly cloudy 10 - - - -
30/05:30am 10.5 NE 14 18 1019.1 - 0.0 - Partly cloudy 10 - - - -
30/05:00am 10.2 NE 13 16 1019.2 - 0.0 - - 10 - - - -
30/04:30am 9.7 NE 13 17 1019.2 - 0.0 - - 10 - - - -
30/04:00am 9.1 ENE 11 13 1019.7 - 0.0 - - 10 - - - -
30/03:30am 9.5 ENE 11 13 1020.0 - 0.0 - - 10 - - - -
30/03:00am 9.8 ENE 12 14 1020.3 - 0.0 - Partly cloudy 10 - - - -
30/02:30am 10.6 NE 13 16 1020.7 - 0.0 - - 10 - - - -
30/02:00am 11.1 ENE 12 16 1020.4 - 0.0 - - 10 - - - -
30/01:30am 8.8 ENE 10 11 1020.4 - 0.0 - - 10 - - - -
30/01:00am 9.0 E 9 11 1020.8 - 0.0 - - 10 - - - -
30/12:30am 8.7 E 9 11 1020.9 - 0.0 - - 10 - - - -
30/12:00am 9.2 E 9 11 1021.3 - 0.0 - Cloudy 10 - - - -
 
Date/Time
CST
Temp

°C
Wind Pressure Rain
since 9am
mm
Weather Cloud Vis
km
Sea
Height
m
Swell
Dir
 
Speed
knots
Gust
knots
hPa Trend Height
m
Period
s
Dir
29/11:30pm 9.8 E 9 11 1021.5 - 0.0 - - 10 - - - -
29/11:00pm 10.6 E 10 12 1021.9 - 0.0 - - 10 - - - -
29/10:30pm 11.1 E 11 13 1022.0 - 0.0 - - 10 - - - -
29/10:00pm 11.9 ESE 11 14 1022.3 - 0.0 - - 10 - - - -
29/09:30pm 12.6 ESE 12 15 1022.3 - 0.0 - - 10 - - - -
29/09:00pm 12.4 ESE 10 12 1022.3 - 0.0 - Mostly clear 10 - - - -
29/08:30pm 12.5 ESE 9 11 1022.3 - 0.0 - - 10 - - - -
29/08:00pm 12.8 ESE 11 13 1022.0 - 0.0 - - 10 - - - -
29/07:30pm 13.1 ESE 11 13 1022.1 - 0.0 - - 10 - - - -
29/07:00pm 13.8 ESE 11 15 1021.7 - 0.0 - - 10 - - - -
29/06:30pm 14.5 ESE 12 15 1021.7 - 0.0 - - 10 - - - -
29/06:00pm 15.9 SE 16 20 1021.4 - 0.0 - - 10 - - - -
29/05:30pm 17.1 ESE 16 21 1021.2 - 0.0 - - 10 - - - -
29/05:00pm 18.2 ESE 16 19 1021.4 - 0.0 - - 10 - - - -
29/04:30pm 19.1 ESE 16 20 1021.3 - 0.0 - - 10 - - - -
29/04:00pm 19.8 ESE 16 19 1021.5 - 0.0 - - 10 - - - -
29/03:30pm 21.8 ENE 10 16 1021.6 - 0.0 - - 10 - - - -
29/03:00pm 21.4 NE 10 17 1021.7 - 0.0 - - 10 - - - -
29/02:30pm 21.3 NE 11 17 1022.0 - 0.0 - - 10 - - - -
29/02:00pm 21.0 NE 9 17 1022.4 - 0.0 - - 10 - - - -
29/01:30pm 20.2 NE 9 14 1023.0 - 0.0 - - 10 - - - -
29/01:00pm 20.6 NE 12 21 1023.6 - 0.0 - - 10 - - - -
29/12:30pm 20.4 NE 13 18 1024.0 - 0.0 - - 10 - - - -
29/12:00pm 19.1 NE 16 20 1024.5 - 0.0 - - 10 - - - -
29/11:30am 18.8 NE 16 19 1025.0 - 0.0 - - 10 - - - -
29/11:00am 17.7 NE 15 19 1025.4 - 0.0 - - 10 - - - -
29/10:30am 16.5 NE 17 21 1025.5 - 0.0 - - 10 - - - -
29/10:00am 14.9 NE 16 19 1025.7 - 0.0 - - 10 - - - -
29/09:30am 13.7 NE 14 19 1025.8 - 0.0 - - 10 - - - -
29/09:00am 11.5 NE 13 17 1025.7 - 0.0 - - 10 - - - -
29/08:30am 9.6 NE 12 16 1025.5 - 0.0 - - 10 - - - -
29/08:00am 7.4 NE 11 14 1025.2 - 0.0 - - 10 - - - -
29/07:30am 5.5 ENE 10 12 1024.8 - 0.0 - - 10 - - - -
29/07:00am 5.3 ENE 10 12 1024.6 - 0.0 - - 10 - - - -
29/06:30am 5.5 NE 10 12 1024.4 - 0.0 - - 10 - - - -
29/06:00am 5.7 NE 9 11 1024.3 - 0.0 - - 10 - - - -
29/05:30am 5.3 NE 9 10 1024.1 - 0.0 - - 10 - - - -
29/05:00am 5.4 NE 9 10 1024.2 - 0.0 - - 10 - - - -
29/04:30am 4.8 ENE 8 9 1024.2 - 0.0 - - 10 - - - -
29/04:00am 5.7 E 8 9 1024.2 - 0.0 - - 10 - - - -
29/03:30am 7.0 E 7 9 1024.4 - 0.0 - - 10 - - - -
29/03:00am 8.2 E 9 11 1024.5 - 0.0 - - 10 - - - -
29/02:30am 8.9 ESE 11 13 1024.7 - 0.0 - - 10 - - - -
29/02:00am 9.0 ESE 11 13 1025.1 - 0.0 - - 10 - - - -
29/01:30am 8.7 E 10 13 1025.4 - 0.0 - - 10 - - - -
29/01:00am 8.7 E 9 11 1025.5 - 0.0 - - 10 - - - -
29/12:30am 9.3 E 10 13 1025.8 - 0.0 - - 10 - - - -
29/12:00am 9.7 E 11 13 1025.9 - 0.0 - - 10 - - - -
 
Date/Time
CST
Temp

°C
Wind Pressure Rain
since 9am
mm
Weather Cloud Vis
km
Sea
Height
m
Swell
Dir
 
Speed
knots
Gust
knots
hPa Trend Height
m
Period
s
Dir
28/11:30pm 10.0 E 11 13 1026.1 - 0.0 - - 10 - - - -
28/11:00pm 10.2 E 11 15 1026.2 - 0.0 - - 10 - - - -
28/10:30pm 10.1 ESE 9 11 1026.3 - 0.0 - - 10 - - - -
28/10:00pm 10.3 ESE 9 10 1026.4 - 0.0 - - 10 - - - -
28/09:30pm 11.5 ESE 12 15 1026.3 - 0.0 - - 10 - - - -
28/09:00pm 11.8 ESE 12 15 1026.1 - 0.0 - - 10 - - - -

Other Formats:

Comma delimited format used in spreadsheet applications
http://www.bom.gov.au/fwo/IDS60701/IDS60701.94651.axf

JavaScript Object Notation format (JSON) in row-major order
http://www.bom.gov.au/fwo/IDS60701/IDS60701.94651.json